sensor_id;sensor_type;location;lat;lon;timestamp;temperature;humidity
65038;DHT22;51605;47.040;15.294;2024-01-30T00:01:22;20.10;50.70
65038;DHT22;51605;47.040;15.294;2024-01-30T00:03:48;20.10;50.70
65038;DHT22;51605;47.040;15.294;2024-01-30T00:06:13;20.10;50.70
65038;DHT22;51605;47.040;15.294;2024-01-30T00:08:39;20.10;50.70
65038;DHT22;51605;47.040;15.294;2024-01-30T00:11:04;20.10;50.80
65038;DHT22;51605;47.040;15.294;2024-01-30T00:13:30;20.10;50.70
65038;DHT22;51605;47.040;15.294;2024-01-30T00:15:56;20.10;50.70
65038;DHT22;51605;47.040;15.294;2024-01-30T00:18:22;20.10;50.70
65038;DHT22;51605;47.040;15.294;2024-01-30T00:20:47;20.10;50.70
65038;DHT22;51605;47.040;15.294;2024-01-30T00:23:13;20.10;50.70
65038;DHT22;51605;47.040;15.294;2024-01-30T00:25:39;20.10;50.70
65038;DHT22;51605;47.040;15.294;2024-01-30T00:28:05;20.10;50.70
65038;DHT22;51605;47.040;15.294;2024-01-30T00:30:31;20.10;50.60
65038;DHT22;51605;47.040;15.294;2024-01-30T00:32:56;20.10;50.70
65038;DHT22;51605;47.040;15.294;2024-01-30T00:35:22;20.10;51.60
65038;DHT22;51605;47.040;15.294;2024-01-30T00:37:48;20.10;50.60
65038;DHT22;51605;47.040;15.294;2024-01-30T00:40:14;20.10;50.70
65038;DHT22;51605;47.040;15.294;2024-01-30T00:42:42;20.10;50.60
65038;DHT22;51605;47.040;15.294;2024-01-30T00:45:14;20.10;50.60
65038;DHT22;51605;47.040;15.294;2024-01-30T00:47:40;20.10;50.60
65038;DHT22;51605;47.040;15.294;2024-01-30T00:50:06;20.10;50.60
65038;DHT22;51605;47.040;15.294;2024-01-30T00:52:32;20.10;50.60
65038;DHT22;51605;47.040;15.294;2024-01-30T00:55:01;20.10;50.60
65038;DHT22;51605;47.040;15.294;2024-01-30T00:57:29;20.10;50.60
65038;DHT22;51605;47.040;15.294;2024-01-30T00:59:54;20.10;50.60
65038;DHT22;51605;47.040;15.294;2024-01-30T01:02:20;20.10;50.60
65038;DHT22;51605;47.040;15.294;2024-01-30T01:04:46;20.10;50.60
65038;DHT22;51605;47.040;15.294;2024-01-30T01:07:11;20.00;50.60
65038;DHT22;51605;47.040;15.294;2024-01-30T01:09:37;20.10;50.60
65038;DHT22;51605;47.040;15.294;2024-01-30T01:12:04;20.10;50.60
65038;DHT22;51605;47.040;15.294;2024-01-30T01:14:30;20.10;50.60
65038;DHT22;51605;47.040;15.294;2024-01-30T01:16:55;20.10;50.50
65038;DHT22;51605;47.040;15.294;2024-01-30T01:19:22;20.10;50.50
65038;DHT22;51605;47.040;15.294;2024-01-30T01:21:47;20.10;50.60
65038;DHT22;51605;47.040;15.294;2024-01-30T01:24:13;20.10;50.60
65038;DHT22;51605;47.040;15.294;2024-01-30T01:26:39;20.00;50.50
65038;DHT22;51605;47.040;15.294;2024-01-30T01:29:06;20.00;50.50
65038;DHT22;51605;47.040;15.294;2024-01-30T01:31:36;20.10;50.60
65038;DHT22;51605;47.040;15.294;2024-01-30T01:34:05;20.10;50.60
65038;DHT22;51605;47.040;15.294;2024-01-30T01:36:31;20.00;50.50
65038;DHT22;51605;47.040;15.294;2024-01-30T01:38:57;20.00;50.50
65038;DHT22;51605;47.040;15.294;2024-01-30T01:41:32;20.10;50.60
65038;DHT22;51605;47.040;15.294;2024-01-30T01:43:59;20.00;50.50
65038;DHT22;51605;47.040;15.294;2024-01-30T01:46:27;20.00;50.50
65038;DHT22;51605;47.040;15.294;2024-01-30T01:48:53;20.10;50.60
65038;DHT22;51605;47.040;15.294;2024-01-30T01:51:21;20.00;50.50
65038;DHT22;51605;47.040;15.294;2024-01-30T01:53:47;20.00;50.50
65038;DHT22;51605;47.040;15.294;2024-01-30T01:56:13;20.00;50.50
65038;DHT22;51605;47.040;15.294;2024-01-30T01:58:39;20.00;50.60
65038;DHT22;51605;47.040;15.294;2024-01-30T02:01:07;20.00;50.60
65038;DHT22;51605;47.040;15.294;2024-01-30T02:03:34;20.00;50.50
65038;DHT22;51605;47.040;15.294;2024-01-30T02:06:00;20.00;50.50
65038;DHT22;51605;47.040;15.294;2024-01-30T02:08:27;20.00;50.50
65038;DHT22;51605;47.040;15.294;2024-01-30T02:10:53;20.10;50.60
65038;DHT22;51605;47.040;15.294;2024-01-30T02:13:20;20.10;50.50
65038;DHT22;51605;47.040;15.294;2024-01-30T02:15:49;20.10;50.50
65038;DHT22;51605;47.040;15.294;2024-01-30T02:18:16;20.00;50.50
65038;DHT22;51605;47.040;15.294;2024-01-30T02:20:42;20.00;50.50
65038;DHT22;51605;47.040;15.294;2024-01-30T02:23:09;20.10;50.50
65038;DHT22;51605;47.040;15.294;2024-01-30T02:25:39;20.00;50.50
65038;DHT22;51605;47.040;15.294;2024-01-30T02:28:12;20.10;50.50
65038;DHT22;51605;47.040;15.294;2024-01-30T02:30:39;20.00;50.50
65038;DHT22;51605;47.040;15.294;2024-01-30T02:33:04;20.10;50.60
65038;DHT22;51605;47.040;15.294;2024-01-30T02:35:30;20.10;50.50
65038;DHT22;51605;47.040;15.294;2024-01-30T02:37:56;20.10;50.50
65038;DHT22;51605;47.040;15.294;2024-01-30T02:40:22;20.10;50.50
65038;DHT22;51605;47.040;15.294;2024-01-30T02:42:48;20.00;50.40
65038;DHT22;51605;47.040;15.294;2024-01-30T02:45:13;20.00;50.40
65038;DHT22;51605;47.040;15.294;2024-01-30T02:47:40;20.00;50.40
65038;DHT22;51605;47.040;15.294;2024-01-30T02:50:06;20.00;50.40
65038;DHT22;51605;47.040;15.294;2024-01-30T02:52:32;20.10;50.50
65038;DHT22;51605;47.040;15.294;2024-01-30T02:54:58;20.10;50.40
65038;DHT22;51605;47.040;15.294;2024-01-30T02:57:24;20.10;50.50
65038;DHT22;51605;47.040;15.294;2024-01-30T02:59:49;20.10;50.40
65038;DHT22;51605;47.040;15.294;2024-01-30T03:02:15;20.10;50.60
65038;DHT22;51605;47.040;15.294;2024-01-30T03:04:41;20.10;50.50
65038;DHT22;51605;47.040;15.294;2024-01-30T03:07:08;20.10;50.40
65038;DHT22;51605;47.040;15.294;2024-01-30T03:09:33;20.10;50.40
65038;DHT22;51605;47.040;15.294;2024-01-30T03:11:59;20.10;50.40
65038;DHT22;51605;47.040;15.294;2024-01-30T03:14:24;20.10;50.40
65038;DHT22;51605;47.040;15.294;2024-01-30T03:16:50;20.10;50.50
65038;DHT22;51605;47.040;15.294;2024-01-30T03:19:16;20.00;50.40
65038;DHT22;51605;47.040;15.294;2024-01-30T03:21:41;20.00;50.40
65038;DHT22;51605;47.040;15.294;2024-01-30T03:24:07;20.00;50.40
65038;DHT22;51605;47.040;15.294;2024-01-30T03:26:32;20.00;50.40
65038;DHT22;51605;47.040;15.294;2024-01-30T03:28:59;20.10;50.40
65038;DHT22;51605;47.040;15.294;2024-01-30T03:31:24;20.10;50.40
65038;DHT22;51605;47.040;15.294;2024-01-30T03:33:50;20.10;50.40
65038;DHT22;51605;47.040;15.294;2024-01-30T03:36:16;20.00;50.40
65038;DHT22;51605;47.040;15.294;2024-01-30T03:38:41;20.10;50.40
65038;DHT22;51605;47.040;15.294;2024-01-30T03:41:08;20.00;50.40
65038;DHT22;51605;47.040;15.294;2024-01-30T03:43:35;20.00;50.40
65038;DHT22;51605;47.040;15.294;2024-01-30T03:46:01;20.00;50.40
65038;DHT22;51605;47.040;15.294;2024-01-30T03:48:28;20.00;50.40
65038;DHT22;51605;47.040;15.294;2024-01-30T03:50:54;20.00;50.40
65038;DHT22;51605;47.040;15.294;2024-01-30T03:53:20;20.00;50.90
65038;DHT22;51605;47.040;15.294;2024-01-30T03:55:45;20.00;50.30
65038;DHT22;51605;47.040;15.294;2024-01-30T03:58:11;20.00;50.40
65038;DHT22;51605;47.040;15.294;2024-01-30T04:00:37;20.00;50.40
65038;DHT22;51605;47.040;15.294;2024-01-30T04:03:03;20.00;50.50
65038;DHT22;51605;47.040;15.294;2024-01-30T04:05:29;20.00;50.50
65038;DHT22;51605;47.040;15.294;2024-01-30T04:07:55;20.00;50.70
65038;DHT22;51605;47.040;15.294;2024-01-30T04:10:21;20.00;50.80
65038;DHT22;51605;47.040;15.294;2024-01-30T04:12:46;20.00;50.70
65038;DHT22;51605;47.040;15.294;2024-01-30T04:15:12;20.00;50.60
65038;DHT22;51605;47.040;15.294;2024-01-30T04:17:39;20.00;50.50
65038;DHT22;51605;47.040;15.294;2024-01-30T04:20:05;20.00;50.50
65038;DHT22;51605;47.040;15.294;2024-01-30T04:22:31;20.00;50.50
65038;DHT22;51605;47.040;15.294;2024-01-30T04:24:57;20.00;50.40
65038;DHT22;51605;47.040;15.294;2024-01-30T04:27:22;20.00;50.40
65038;DHT22;51605;47.040;15.294;2024-01-30T04:29:48;20.00;50.40
65038;DHT22;51605;47.040;15.294;2024-01-30T04:32:14;20.00;50.40
65038;DHT22;51605;47.040;15.294;2024-01-30T04:34:40;20.00;50.40
65038;DHT22;51605;47.040;15.294;2024-01-30T04:37:05;20.00;50.40
65038;DHT22;51605;47.040;15.294;2024-01-30T04:39:33;20.00;50.40
65038;DHT22;51605;47.040;15.294;2024-01-30T04:41:58;20.00;50.40
65038;DHT22;51605;47.040;15.294;2024-01-30T04:44:25;20.00;50.40
65038;DHT22;51605;47.040;15.294;2024-01-30T04:46:50;20.10;50.50
65038;DHT22;51605;47.040;15.294;2024-01-30T04:49:16;20.00;50.40
65038;DHT22;51605;47.040;15.294;2024-01-30T04:51:42;20.00;50.40
65038;DHT22;51605;47.040;15.294;2024-01-30T04:54:07;20.00;50.40
65038;DHT22;51605;47.040;15.294;2024-01-30T04:56:33;20.00;50.40
65038;DHT22;51605;47.040;15.294;2024-01-30T04:59:02;20.00;50.40
65038;DHT22;51605;47.040;15.294;2024-01-30T05:01:28;20.00;50.40
65038;DHT22;51605;47.040;15.294;2024-01-30T05:03:53;20.00;50.40
65038;DHT22;51605;47.040;15.294;2024-01-30T05:06:26;20.00;51.30
65038;DHT22;51605;47.040;15.294;2024-01-30T05:08:52;20.00;50.30
65038;DHT22;51605;47.040;15.294;2024-01-30T05:11:18;20.00;50.30
65038;DHT22;51605;47.040;15.294;2024-01-30T05:13:43;20.00;50.40
65038;DHT22;51605;47.040;15.294;2024-01-30T05:16:09;20.00;50.40
65038;DHT22;51605;47.040;15.294;2024-01-30T05:18:35;20.00;50.30
65038;DHT22;51605;47.040;15.294;2024-01-30T05:21:01;20.00;50.40
65038;DHT22;51605;47.040;15.294;2024-01-30T05:23:27;20.00;50.40
65038;DHT22;51605;47.040;15.294;2024-01-30T05:25:52;20.00;51.30
65038;DHT22;51605;47.040;15.294;2024-01-30T05:28:18;20.00;50.40
65038;DHT22;51605;47.040;15.294;2024-01-30T05:30:44;20.10;50.40
65038;DHT22;51605;47.040;15.294;2024-01-30T05:33:09;20.00;50.40
65038;DHT22;51605;47.040;15.294;2024-01-30T05:35:37;20.00;50.40
65038;DHT22;51605;47.040;15.294;2024-01-30T05:38:03;20.00;50.40
65038;DHT22;51605;47.040;15.294;2024-01-30T05:40:30;20.00;50.40
65038;DHT22;51605;47.040;15.294;2024-01-30T05:42:56;20.00;50.40
65038;DHT22;51605;47.040;15.294;2024-01-30T05:45:26;20.00;50.40
65038;DHT22;51605;47.040;15.294;2024-01-30T05:47:53;20.00;50.40
65038;DHT22;51605;47.040;15.294;2024-01-30T05:50:19;20.00;50.40
65038;DHT22;51605;47.040;15.294;2024-01-30T05:52:45;20.00;50.40
65038;DHT22;51605;47.040;15.294;2024-01-30T05:55:12;20.10;50.50
65038;DHT22;51605;47.040;15.294;2024-01-30T05:57:38;20.00;50.40
65038;DHT22;51605;47.040;15.294;2024-01-30T06:00:05;20.00;50.30
65038;DHT22;51605;47.040;15.294;2024-01-30T06:02:31;20.00;50.40
65038;DHT22;51605;47.040;15.294;2024-01-30T06:04:58;20.00;50.30
65038;DHT22;51605;47.040;15.294;2024-01-30T06:07:24;20.00;50.30
65038;DHT22;51605;47.040;15.294;2024-01-30T06:09:50;20.00;50.40
65038;DHT22;51605;47.040;15.294;2024-01-30T06:12:15;20.00;50.30
65038;DHT22;51605;47.040;15.294;2024-01-30T06:14:41;20.00;50.30
65038;DHT22;51605;47.040;15.294;2024-01-30T06:17:11;20.00;50.40
65038;DHT22;51605;47.040;15.294;2024-01-30T06:19:38;20.00;50.40
65038;DHT22;51605;47.040;15.294;2024-01-30T06:22:04;20.00;50.40
65038;DHT22;51605;47.040;15.294;2024-01-30T06:24:30;20.00;50.30
65038;DHT22;51605;47.040;15.294;2024-01-30T06:26:56;20.00;50.30
65038;DHT22;51605;47.040;15.294;2024-01-30T06:29:21;20.00;50.40
65038;DHT22;51605;47.040;15.294;2024-01-30T06:31:47;20.00;50.40
65038;DHT22;51605;47.040;15.294;2024-01-30T06:34:13;20.00;50.90
65038;DHT22;51605;47.040;15.294;2024-01-30T06:36:39;20.00;50.40
65038;DHT22;51605;47.040;15.294;2024-01-30T06:39:04;20.00;50.40
65038;DHT22;51605;47.040;15.294;2024-01-30T06:41:31;20.00;50.40
65038;DHT22;51605;47.040;15.294;2024-01-30T06:43:56;20.10;50.40
65038;DHT22;51605;47.040;15.294;2024-01-30T06:46:22;20.00;50.30
65038;DHT22;51605;47.040;15.294;2024-01-30T06:48:48;20.00;50.40
65038;DHT22;51605;47.040;15.294;2024-01-30T06:51:14;20.00;50.40
65038;DHT22;51605;47.040;15.294;2024-01-30T06:53:39;20.00;50.30
65038;DHT22;51605;47.040;15.294;2024-01-30T06:56:05;20.00;50.10
65038;DHT22;51605;47.040;15.294;2024-01-30T06:58:31;20.00;50.10
65038;DHT22;51605;47.040;15.294;2024-01-30T07:00:58;20.00;49.90
65038;DHT22;51605;47.040;15.294;2024-01-30T07:03:24;20.00;49.90
65038;DHT22;51605;47.040;15.294;2024-01-30T07:05:50;20.00;50.10
65038;DHT22;51605;47.040;15.294;2024-01-30T07:08:16;20.00;50.20
65038;DHT22;51605;47.040;15.294;2024-01-30T07:10:44;20.00;50.20
65038;DHT22;51605;47.040;15.294;2024-01-30T07:13:13;20.00;49.90
65038;DHT22;51605;47.040;15.294;2024-01-30T07:15:42;20.00;49.60
65038;DHT22;51605;47.040;15.294;2024-01-30T07:18:07;20.00;49.50
65038;DHT22;51605;47.040;15.294;2024-01-30T07:20:35;20.00;49.50
65038;DHT22;51605;47.040;15.294;2024-01-30T07:23:01;20.00;49.60
65038;DHT22;51605;47.040;15.294;2024-01-30T07:25:26;20.00;49.40
65038;DHT22;51605;47.040;15.294;2024-01-30T07:27:56;20.00;49.50
65038;DHT22;51605;47.040;15.294;2024-01-30T07:30:22;20.00;49.50
65038;DHT22;51605;47.040;15.294;2024-01-30T07:32:49;20.00;49.50
65038;DHT22;51605;47.040;15.294;2024-01-30T07:35:14;20.00;49.60
65038;DHT22;51605;47.040;15.294;2024-01-30T07:37:40;20.00;49.60
65038;DHT22;51605;47.040;15.294;2024-01-30T07:40:06;20.00;49.60
65038;DHT22;51605;47.040;15.294;2024-01-30T07:42:33;20.00;49.60
65038;DHT22;51605;47.040;15.294;2024-01-30T07:45:00;20.00;49.60
65038;DHT22;51605;47.040;15.294;2024-01-30T07:47:26;20.00;49.60
65038;DHT22;51605;47.040;15.294;2024-01-30T07:49:52;20.00;49.60
65038;DHT22;51605;47.040;15.294;2024-01-30T07:52:18;20.00;49.70
65038;DHT22;51605;47.040;15.294;2024-01-30T07:58:06;20.00;49.60
65038;DHT22;51605;47.040;15.294;2024-01-30T08:00:31;20.00;49.60
65038;DHT22;51605;47.040;15.294;2024-01-30T08:02:57;20.00;49.70
65038;DHT22;51605;47.040;15.294;2024-01-30T08:05:24;20.00;49.80
65038;DHT22;51605;47.040;15.294;2024-01-30T08:07:50;20.00;49.70
65038;DHT22;51605;47.040;15.294;2024-01-30T08:10:16;20.00;49.70
65038;DHT22;51605;47.040;15.294;2024-01-30T08:12:43;20.00;49.80
65038;DHT22;51605;47.040;15.294;2024-01-30T08:15:09;20.00;49.80
65038;DHT22;51605;47.040;15.294;2024-01-30T08:17:35;20.00;49.70
65038;DHT22;51605;47.040;15.294;2024-01-30T08:20:00;20.00;49.70
65038;DHT22;51605;47.040;15.294;2024-01-30T08:22:26;20.00;49.80
65038;DHT22;51605;47.040;15.294;2024-01-30T08:24:52;20.00;49.80
65038;DHT22;51605;47.040;15.294;2024-01-30T08:27:17;20.00;49.80
65038;DHT22;51605;47.040;15.294;2024-01-30T08:29:43;20.00;49.80
65038;DHT22;51605;47.040;15.294;2024-01-30T08:32:09;20.00;49.80
65038;DHT22;51605;47.040;15.294;2024-01-30T08:34:34;20.00;49.90
65038;DHT22;51605;47.040;15.294;2024-01-30T08:37:00;20.00;49.80
65038;DHT22;51605;47.040;15.294;2024-01-30T08:39:26;20.00;49.80
65038;DHT22;51605;47.040;15.294;2024-01-30T08:41:51;20.00;49.80
65038;DHT22;51605;47.040;15.294;2024-01-30T08:44:17;20.00;49.90
65038;DHT22;51605;47.040;15.294;2024-01-30T08:46:46;20.00;49.90
65038;DHT22;51605;47.040;15.294;2024-01-30T08:49:12;20.00;49.90
65038;DHT22;51605;47.040;15.294;2024-01-30T08:51:39;20.00;49.90
65038;DHT22;51605;47.040;15.294;2024-01-30T08:54:05;20.00;49.90
65038;DHT22;51605;47.040;15.294;2024-01-30T08:56:30;20.00;49.90
65038;DHT22;51605;47.040;15.294;2024-01-30T08:58:56;20.00;49.90
65038;DHT22;51605;47.040;15.294;2024-01-30T09:01:22;20.00;49.90
65038;DHT22;51605;47.040;15.294;2024-01-30T09:03:47;20.00;49.90
65038;DHT22;51605;47.040;15.294;2024-01-30T09:06:13;20.00;49.90
65038;DHT22;51605;47.040;15.294;2024-01-30T09:08:39;20.00;49.90
65038;DHT22;51605;47.040;15.294;2024-01-30T09:11:15;20.00;49.90
65038;DHT22;51605;47.040;15.294;2024-01-30T09:13:41;20.00;49.90
65038;DHT22;51605;47.040;15.294;2024-01-30T09:16:07;20.10;50.00
65038;DHT22;51605;47.040;15.294;2024-01-30T09:18:33;20.00;49.90
65038;DHT22;51605;47.040;15.294;2024-01-30T09:20:59;20.00;49.90
65038;DHT22;51605;47.040;15.294;2024-01-30T09:23:26;20.00;49.90
65038;DHT22;51605;47.040;15.294;2024-01-30T09:25:52;20.00;49.90
65038;DHT22;51605;47.040;15.294;2024-01-30T09:28:17;20.00;49.90
65038;DHT22;51605;47.040;15.294;2024-01-30T09:30:43;20.00;49.90
65038;DHT22;51605;47.040;15.294;2024-01-30T09:33:09;20.00;49.90
65038;DHT22;51605;47.040;15.294;2024-01-30T09:35:36;20.00;49.90
65038;DHT22;51605;47.040;15.294;2024-01-30T09:38:01;20.00;50.00
65038;DHT22;51605;47.040;15.294;2024-01-30T09:40:28;20.00;50.00
65038;DHT22;51605;47.040;15.294;2024-01-30T09:42:54;20.00;50.00
65038;DHT22;51605;47.040;15.294;2024-01-30T09:45:24;20.00;50.00
65038;DHT22;51605;47.040;15.294;2024-01-30T09:47:50;20.00;50.00
65038;DHT22;51605;47.040;15.294;2024-01-30T09:50:16;20.00;50.10
65038;DHT22;51605;47.040;15.294;2024-01-30T09:52:46;20.00;51.10
65038;DHT22;51605;47.040;15.294;2024-01-30T09:55:13;20.00;50.00
65038;DHT22;51605;47.040;15.294;2024-01-30T09:57:39;20.00;50.00
65038;DHT22;51605;47.040;15.294;2024-01-30T10:00:06;20.00;50.00
65038;DHT22;51605;47.040;15.294;2024-01-30T10:02:35;20.00;49.90
65038;DHT22;51605;47.040;15.294;2024-01-30T10:05:01;20.00;50.00
65038;DHT22;51605;47.040;15.294;2024-01-30T10:07:27;20.10;50.10
65038;DHT22;51605;47.040;15.294;2024-01-30T10:09:53;20.00;50.00
65038;DHT22;51605;47.040;15.294;2024-01-30T10:12:20;20.00;50.00
65038;DHT22;51605;47.040;15.294;2024-01-30T10:14:46;20.00;50.00
65038;DHT22;51605;47.040;15.294;2024-01-30T10:17:12;20.00;50.00
65038;DHT22;51605;47.040;15.294;2024-01-30T10:19:41;20.00;50.00
65038;DHT22;51605;47.040;15.294;2024-01-30T10:22:07;20.00;50.10
65038;DHT22;51605;47.040;15.294;2024-01-30T10:24:34;20.00;50.00
65038;DHT22;51605;47.040;15.294;2024-01-30T10:27:00;20.00;50.10
65038;DHT22;51605;47.040;15.294;2024-01-30T10:29:26;20.00;50.00
65038;DHT22;51605;47.040;15.294;2024-01-30T10:32:02;20.10;50.10
65038;DHT22;51605;47.040;15.294;2024-01-30T10:34:28;20.00;50.10
65038;DHT22;51605;47.040;15.294;2024-01-30T10:37:08;20.00;50.10
65038;DHT22;51605;47.040;15.294;2024-01-30T10:39:46;20.00;50.00
65038;DHT22;51605;47.040;15.294;2024-01-30T10:42:13;20.00;50.00
65038;DHT22;51605;47.040;15.294;2024-01-30T10:45:00;20.00;50.10
65038;DHT22;51605;47.040;15.294;2024-01-30T10:47:29;20.00;50.10
65038;DHT22;51605;47.040;15.294;2024-01-30T10:49:56;20.00;50.10
65038;DHT22;51605;47.040;15.294;2024-01-30T10:52:24;20.00;50.10
65038;DHT22;51605;47.040;15.294;2024-01-30T10:54:55;20.10;50.20
65038;DHT22;51605;47.040;15.294;2024-01-30T10:57:23;20.00;50.10
65038;DHT22;51605;47.040;15.294;2024-01-30T10:59:50;20.00;50.10
65038;DHT22;51605;47.040;15.294;2024-01-30T11:02:17;20.00;50.20
65038;DHT22;51605;47.040;15.294;2024-01-30T11:04:43;20.00;50.10
65038;DHT22;51605;47.040;15.294;2024-01-30T11:07:19;20.10;50.20
65038;DHT22;51605;47.040;15.294;2024-01-30T11:10:09;20.00;50.20
65038;DHT22;51605;47.040;15.294;2024-01-30T11:12:39;20.00;50.20
65038;DHT22;51605;47.040;15.294;2024-01-30T11:15:16;20.00;50.20
65038;DHT22;51605;47.040;15.294;2024-01-30T11:20:12;20.00;50.20
65038;DHT22;51605;47.040;15.294;2024-01-30T11:22:41;20.00;50.20
65038;DHT22;51605;47.040;15.294;2024-01-30T11:25:11;20.00;50.20
65038;DHT22;51605;47.040;15.294;2024-01-30T11:27:38;20.00;50.30
65038;DHT22;51605;47.040;15.294;2024-01-30T11:30:04;20.00;50.30
65038;DHT22;51605;47.040;15.294;2024-01-30T11:32:30;20.00;50.30
65038;DHT22;51605;47.040;15.294;2024-01-30T11:34:56;20.00;50.30
65038;DHT22;51605;47.040;15.294;2024-01-30T11:37:25;20.00;50.30
65038;DHT22;51605;47.040;15.294;2024-01-30T11:39:55;20.00;50.30
65038;DHT22;51605;47.040;15.294;2024-01-30T11:42:23;20.00;50.30
65038;DHT22;51605;47.040;15.294;2024-01-30T11:44:50;20.00;50.30
65038;DHT22;51605;47.040;15.294;2024-01-30T11:47:16;20.00;50.30
65038;DHT22;51605;47.040;15.294;2024-01-30T11:49:43;20.00;50.30
65038;DHT22;51605;47.040;15.294;2024-01-30T11:52:09;20.00;50.40
65038;DHT22;51605;47.040;15.294;2024-01-30T11:54:35;20.00;50.30
65038;DHT22;51605;47.040;15.294;2024-01-30T11:57:01;20.00;50.30
65038;DHT22;51605;47.040;15.294;2024-01-30T11:59:27;20.00;50.40
65038;DHT22;51605;47.040;15.294;2024-01-30T12:01:52;20.00;50.40
65038;DHT22;51605;47.040;15.294;2024-01-30T12:04:18;20.00;50.30
65038;DHT22;51605;47.040;15.294;2024-01-30T12:06:44;20.00;50.40
65038;DHT22;51605;47.040;15.294;2024-01-30T12:09:09;20.00;50.30
65038;DHT22;51605;47.040;15.294;2024-01-30T12:11:47;20.00;50.40
65038;DHT22;51605;47.040;15.294;2024-01-30T12:14:13;20.00;50.40
65038;DHT22;51605;47.040;15.294;2024-01-30T12:16:39;20.00;50.30
65038;DHT22;51605;47.040;15.294;2024-01-30T12:21:40;20.00;50.30
65038;DHT22;51605;47.040;15.294;2024-01-30T12:24:10;20.00;50.40
65038;DHT22;51605;47.040;15.294;2024-01-30T12:26:36;20.00;51.30
65038;DHT22;51605;47.040;15.294;2024-01-30T12:29:04;20.00;50.40
65038;DHT22;51605;47.040;15.294;2024-01-30T12:31:31;20.00;50.40
65038;DHT22;51605;47.040;15.294;2024-01-30T12:33:59;20.00;50.40
65038;DHT22;51605;47.040;15.294;2024-01-30T12:36:25;20.10;50.40
65038;DHT22;51605;47.040;15.294;2024-01-30T12:38:51;20.00;50.30
65038;DHT22;51605;47.040;15.294;2024-01-30T12:41:17;20.00;50.30
65038;DHT22;51605;47.040;15.294;2024-01-30T12:43:43;20.00;50.40
65038;DHT22;51605;47.040;15.294;2024-01-30T12:46:09;20.00;50.40
65038;DHT22;51605;47.040;15.294;2024-01-30T12:48:35;20.00;50.40
65038;DHT22;51605;47.040;15.294;2024-01-30T12:51:00;20.00;50.30
65038;DHT22;51605;47.040;15.294;2024-01-30T12:53:27;20.00;50.40
65038;DHT22;51605;47.040;15.294;2024-01-30T12:55:52;20.00;50.40
65038;DHT22;51605;47.040;15.294;2024-01-30T12:58:19;20.00;50.40
65038;DHT22;51605;47.040;15.294;2024-01-30T13:00:45;20.00;50.40
65038;DHT22;51605;47.040;15.294;2024-01-30T13:03:12;20.00;50.40
65038;DHT22;51605;47.040;15.294;2024-01-30T13:05:38;20.00;50.40
65038;DHT22;51605;47.040;15.294;2024-01-30T13:08:04;20.00;50.40
65038;DHT22;51605;47.040;15.294;2024-01-30T13:10:30;20.00;50.40
65038;DHT22;51605;47.040;15.294;2024-01-30T13:12:55;20.00;50.40
65038;DHT22;51605;47.040;15.294;2024-01-30T13:15:21;20.00;50.50
65038;DHT22;51605;47.040;15.294;2024-01-30T13:17:49;20.00;50.50
65038;DHT22;51605;47.040;15.294;2024-01-30T13:20:15;20.00;50.40
65038;DHT22;51605;47.040;15.294;2024-01-30T13:22:44;20.00;51.30
65038;DHT22;51605;47.040;15.294;2024-01-30T13:25:10;20.00;50.40
65038;DHT22;51605;47.040;15.294;2024-01-30T13:27:37;20.00;50.40
65038;DHT22;51605;47.040;15.294;2024-01-30T13:30:03;20.00;50.40
65038;DHT22;51605;47.040;15.294;2024-01-30T13:32:29;20.00;50.40
65038;DHT22;51605;47.040;15.294;2024-01-30T13:34:55;20.00;50.40
65038;DHT22;51605;47.040;15.294;2024-01-30T13:37:22;20.00;50.30
65038;DHT22;51605;47.040;15.294;2024-01-30T13:39:48;20.00;50.30
65038;DHT22;51605;47.040;15.294;2024-01-30T13:42:13;20.00;50.40
65038;DHT22;51605;47.040;15.294;2024-01-30T13:44:39;20.00;50.40
65038;DHT22;51605;47.040;15.294;2024-01-30T13:47:05;20.00;50.40
65038;DHT22;51605;47.040;15.294;2024-01-30T13:49:31;20.00;50.40
65038;DHT22;51605;47.040;15.294;2024-01-30T13:51:56;20.00;50.40
65038;DHT22;51605;47.040;15.294;2024-01-30T13:54:24;20.00;50.40
65038;DHT22;51605;47.040;15.294;2024-01-30T13:56:49;20.00;50.30
65038;DHT22;51605;47.040;15.294;2024-01-30T13:59:15;20.00;50.40
65038;DHT22;51605;47.040;15.294;2024-01-30T14:01:41;20.00;50.40
65038;DHT22;51605;47.040;15.294;2024-01-30T14:04:06;20.00;50.30
65038;DHT22;51605;47.040;15.294;2024-01-30T14:06:32;20.00;50.40
65038;DHT22;51605;47.040;15.294;2024-01-30T14:08:58;20.00;50.40
65038;DHT22;51605;47.040;15.294;2024-01-30T14:11:24;20.00;50.40
65038;DHT22;51605;47.040;15.294;2024-01-30T14:13:50;20.00;50.40
65038;DHT22;51605;47.040;15.294;2024-01-30T14:16:15;20.00;50.30
65038;DHT22;51605;47.040;15.294;2024-01-30T14:18:41;20.00;50.30
65038;DHT22;51605;47.040;15.294;2024-01-30T14:21:07;20.00;50.30
65038;DHT22;51605;47.040;15.294;2024-01-30T14:23:33;20.00;50.30
65038;DHT22;51605;47.040;15.294;2024-01-30T14:25:59;20.00;50.30
65038;DHT22;51605;47.040;15.294;2024-01-30T14:28:25;20.00;50.40
65038;DHT22;51605;47.040;15.294;2024-01-30T14:30:51;20.00;50.40
65038;DHT22;51605;47.040;15.294;2024-01-30T14:33:16;20.00;50.30
65038;DHT22;51605;47.040;15.294;2024-01-30T14:35:42;20.00;50.40
65038;DHT22;51605;47.040;15.294;2024-01-30T14:38:08;20.00;50.40
65038;DHT22;51605;47.040;15.294;2024-01-30T14:40:33;20.00;50.40
65038;DHT22;51605;47.040;15.294;2024-01-30T14:42:59;20.00;50.40
65038;DHT22;51605;47.040;15.294;2024-01-30T14:45:24;20.00;50.40
65038;DHT22;51605;47.040;15.294;2024-01-30T14:47:50;20.00;50.30
65038;DHT22;51605;47.040;15.294;2024-01-30T14:50:16;20.00;50.30
65038;DHT22;51605;47.040;15.294;2024-01-30T14:52:42;20.00;50.30
65038;DHT22;51605;47.040;15.294;2024-01-30T14:55:08;20.00;50.30
65038;DHT22;51605;47.040;15.294;2024-01-30T14:57:34;20.00;50.30
65038;DHT22;51605;47.040;15.294;2024-01-30T15:00:00;20.00;50.30
65038;DHT22;51605;47.040;15.294;2024-01-30T15:02:26;20.00;50.30
65038;DHT22;51605;47.040;15.294;2024-01-30T15:04:58;20.00;50.30
65038;DHT22;51605;47.040;15.294;2024-01-30T15:07:24;20.00;50.30
65038;DHT22;51605;47.040;15.294;2024-01-30T15:09:49;20.00;50.30
65038;DHT22;51605;47.040;15.294;2024-01-30T15:12:15;20.00;50.30
65038;DHT22;51605;47.040;15.294;2024-01-30T15:14:41;20.00;50.30
65038;DHT22;51605;47.040;15.294;2024-01-30T15:17:10;20.00;50.30
65038;DHT22;51605;47.040;15.294;2024-01-30T15:19:36;20.00;50.20